Overview Statistics Trail Chart Weather Telemetry Raw packets
 

This is the latest recevied weather packets stored in our database for station/object PI1GDA-1. If no packets are shown the sender has not sent any weather packets the latest 10 day(s).

<< 1 2 3 4 5 6 7 >>
Time Temp. Humidity Pressure Rain* Wind** Luminosity Snow
1778070461 16.11° C 58% 1010.1 hPa 0 mm - - -
1778069861 16.11° C 59% 1010.2 hPa 0 mm - - -
1778069260 15.56° C 62% 1010.2 hPa 0 mm - - -
1778068660 15° C 62% 1010.2 hPa 0 mm - - -
1778068059 15.56° C 62% 1010.2 hPa 0 mm - - -
1778067456 16.11° C 61% 1010.3 hPa 0 mm - - -
1778066855 15.56° C 62% 1010.2 hPa 0 mm - - -
1778066255 15.56° C 62% 1010.2 hPa 0 mm - - -
1778065654 15.56° C 62% 1010.2 hPa 0 mm - - -
1778065053 14.44° C 65% 1010.2 hPa 0 mm - - -
1778064452 15° C 67% 1010.2 hPa 0 mm - - -
1778063851 15° C 67% 1010.1 hPa 0 mm - - -
1778063250 14.44° C 69% 1010.2 hPa 0 mm - - -
1778062649 14.44° C 69% 1010.1 hPa 0 mm - - -
1778062049 14.44° C 69% 1010 hPa 0 mm - - -
1778061448 15.56° C 67% 1010 hPa 0 mm - - -
1778060848 15° C 66% 1009.9 hPa 0 mm - - -
1778060248 15.56° C 64% 1009.8 hPa 0 mm - - -
1778059647 15.56° C 66% 1009.8 hPa 0 mm - - -
1778059045 15° C 68% 1009.7 hPa 0 mm - - -
1778058444 15° C 69% 1009.7 hPa 0 mm - - -
1778057842 14.44° C 72% 1009.7 hPa 0 mm - - -
1778057241 13.89° C 77% 1009.6 hPa 0 mm - - -
1778056640 13.33° C 78% 1009.6 hPa 0 mm - - -
1778056039 13.33° C 79% 1009.5 hPa 0 mm - - -

* Rain latest hour (hover to see other rain measurements)
** Current wind speed in m/s (hover to see current wind gust speed)